sensor_id;sensor_type;location;lat;lon;timestamp;temperature;humidity
21734;DHT22;11029;47.820;10.534;2024-03-29T00:02:02;0.40;74.20
21734;DHT22;11029;47.820;10.534;2024-03-29T00:04:46;0.20;75.10
21734;DHT22;11029;47.820;10.534;2024-03-29T00:07:31;0.10;75.10
21734;DHT22;11029;47.820;10.534;2024-03-29T00:10:15;0.10;76.40
21734;DHT22;11029;47.820;10.534;2024-03-29T00:13:00;0.20;76.20
21734;DHT22;11029;47.820;10.534;2024-03-29T00:15:45;0.20;75.10
21734;DHT22;11029;47.820;10.534;2024-03-29T00:18:31;0.00;74.40
21734;DHT22;11029;47.820;10.534;2024-03-29T00:21:15;-0.10;75.90
21734;DHT22;11029;47.820;10.534;2024-03-29T00:24:00;-0.10;76.60
21734;DHT22;11029;47.820;10.534;2024-03-29T00:26:44;0.00;76.60
21734;DHT22;11029;47.820;10.534;2024-03-29T00:29:29;0.10;77.00
21734;DHT22;11029;47.820;10.534;2024-03-29T00:32:14;0.00;75.70
21734;DHT22;11029;47.820;10.534;2024-03-29T00:34:59;0.00;76.20
21734;DHT22;11029;47.820;10.534;2024-03-29T00:37:43;0.10;76.40
21734;DHT22;11029;47.820;10.534;2024-03-29T00:40:28;0.10;76.00
21734;DHT22;11029;47.820;10.534;2024-03-29T00:43:13;0.00;75.50
21734;DHT22;11029;47.820;10.534;2024-03-29T00:45:57;0.00;75.90
21734;DHT22;11029;47.820;10.534;2024-03-29T00:48:42;-0.10;76.30
21734;DHT22;11029;47.820;10.534;2024-03-29T00:51:28;-0.10;76.00
21734;DHT22;11029;47.820;10.534;2024-03-29T00:54:13;-0.10;75.80
21734;DHT22;11029;47.820;10.534;2024-03-29T00:56:59;-0.10;74.90
21734;DHT22;11029;47.820;10.534;2024-03-29T00:59:44;-0.20;75.40
21734;DHT22;11029;47.820;10.534;2024-03-29T01:02:29;-0.30;77.00
21734;DHT22;11029;47.820;10.534;2024-03-29T01:05:13;-0.40;76.50
21734;DHT22;11029;47.820;10.534;2024-03-29T01:07:58;-0.40;75.80
21734;DHT22;11029;47.820;10.534;2024-03-29T01:10:42;-0.30;76.70
21734;DHT22;11029;47.820;10.534;2024-03-29T01:13:27;-0.30;76.30
21734;DHT22;11029;47.820;10.534;2024-03-29T01:16:12;-0.30;76.90
21734;DHT22;11029;47.820;10.534;2024-03-29T01:18:59;-0.20;77.00
21734;DHT22;11029;47.820;10.534;2024-03-29T01:21:45;-0.10;76.90
21734;DHT22;11029;47.820;10.534;2024-03-29T01:24:29;-0.10;76.80
21734;DHT22;11029;47.820;10.534;2024-03-29T01:27:14;0.00;76.40
21734;DHT22;11029;47.820;10.534;2024-03-29T01:29:59;0.00;76.00
21734;DHT22;11029;47.820;10.534;2024-03-29T01:32:44;-0.10;74.70
21734;DHT22;11029;47.820;10.534;2024-03-29T01:35:28;-0.20;74.30
21734;DHT22;11029;47.820;10.534;2024-03-29T01:38:14;-0.40;75.10
21734;DHT22;11029;47.820;10.534;2024-03-29T01:40:59;-0.50;75.80
21734;DHT22;11029;47.820;10.534;2024-03-29T01:43:44;-0.50;75.60
21734;DHT22;11029;47.820;10.534;2024-03-29T01:46:28;-0.60;77.00
21734;DHT22;11029;47.820;10.534;2024-03-29T01:49:13;-0.80;78.10
21734;DHT22;11029;47.820;10.534;2024-03-29T01:51:58;-0.70;78.50
21734;DHT22;11029;47.820;10.534;2024-03-29T01:54:44;-0.60;77.90
21734;DHT22;11029;47.820;10.534;2024-03-29T01:57:29;-0.60;77.30
21734;DHT22;11029;47.820;10.534;2024-03-29T02:00:13;-0.60;76.50
21734;DHT22;11029;47.820;10.534;2024-03-29T02:02:59;-0.60;77.10
21734;DHT22;11029;47.820;10.534;2024-03-29T02:05:44;-0.60;76.10
21734;DHT22;11029;47.820;10.534;2024-03-29T02:08:29;-0.70;75.80
21734;DHT22;11029;47.820;10.534;2024-03-29T02:11:14;-0.80;76.60
21734;DHT22;11029;47.820;10.534;2024-03-29T02:13:58;-0.80;77.20
21734;DHT22;11029;47.820;10.534;2024-03-29T02:16:43;-0.80;77.40
21734;DHT22;11029;47.820;10.534;2024-03-29T02:19:28;-0.70;77.40
21734;DHT22;11029;47.820;10.534;2024-03-29T02:22:15;-0.60;76.90
21734;DHT22;11029;47.820;10.534;2024-03-29T02:25:00;-0.80;77.90
21734;DHT22;11029;47.820;10.534;2024-03-29T02:27:45;-0.70;78.60
21734;DHT22;11029;47.820;10.534;2024-03-29T02:30:30;-0.80;77.30
21734;DHT22;11029;47.820;10.534;2024-03-29T02:33:14;-1.00;76.50
21734;DHT22;11029;47.820;10.534;2024-03-29T02:35:59;-1.00;76.50
21734;DHT22;11029;47.820;10.534;2024-03-29T02:38:44;-1.10;76.60
21734;DHT22;11029;47.820;10.534;2024-03-29T02:41:28;-1.10;77.30
21734;DHT22;11029;47.820;10.534;2024-03-29T02:44:14;-1.10;77.20
21734;DHT22;11029;47.820;10.534;2024-03-29T02:47:00;-1.00;77.80
21734;DHT22;11029;47.820;10.534;2024-03-29T02:49:44;-0.90;76.90
21734;DHT22;11029;47.820;10.534;2024-03-29T02:52:29;-0.90;77.00
21734;DHT22;11029;47.820;10.534;2024-03-29T02:55:13;-0.90;76.90
21734;DHT22;11029;47.820;10.534;2024-03-29T02:57:58;-0.80;76.30
21734;DHT22;11029;47.820;10.534;2024-03-29T03:00:42;-0.80;76.00
21734;DHT22;11029;47.820;10.534;2024-03-29T03:03:27;-0.80;76.10
21734;DHT22;11029;47.820;10.534;2024-03-29T03:06:12;-0.80;76.40
21734;DHT22;11029;47.820;10.534;2024-03-29T03:08:56;-0.90;75.10
21734;DHT22;11029;47.820;10.534;2024-03-29T03:11:59;-1.00;76.50
21734;DHT22;11029;47.820;10.534;2024-03-29T03:14:44;-1.10;76.70
21734;DHT22;11029;47.820;10.534;2024-03-29T03:17:29;-1.30;78.60
21734;DHT22;11029;47.820;10.534;2024-03-29T03:20:13;-1.20;78.20
21734;DHT22;11029;47.820;10.534;2024-03-29T03:23:00;-1.10;77.90
21734;DHT22;11029;47.820;10.534;2024-03-29T03:25:46;-1.10;76.90
21734;DHT22;11029;47.820;10.534;2024-03-29T03:28:37;-1.10;77.10
21734;DHT22;11029;47.820;10.534;2024-03-29T03:31:21;-1.10;76.70
21734;DHT22;11029;47.820;10.534;2024-03-29T03:34:06;-1.00;76.10
21734;DHT22;11029;47.820;10.534;2024-03-29T03:36:51;-1.10;75.90
21734;DHT22;11029;47.820;10.534;2024-03-29T03:39:36;-1.20;76.00
21734;DHT22;11029;47.820;10.534;2024-03-29T03:42:22;-1.20;76.40
21734;DHT22;11029;47.820;10.534;2024-03-29T03:45:06;-1.20;77.10
21734;DHT22;11029;47.820;10.534;2024-03-29T03:47:51;-1.20;77.30
21734;DHT22;11029;47.820;10.534;2024-03-29T03:50:35;-1.20;76.90
21734;DHT22;11029;47.820;10.534;2024-03-29T03:53:20;-1.10;77.20
21734;DHT22;11029;47.820;10.534;2024-03-29T03:56:05;-1.10;77.00
21734;DHT22;11029;47.820;10.534;2024-03-29T03:58:49;-1.10;77.20
21734;DHT22;11029;47.820;10.534;2024-03-29T04:01:34;-1.10;77.10
21734;DHT22;11029;47.820;10.534;2024-03-29T04:04:19;-1.10;77.10
21734;DHT22;11029;47.820;10.534;2024-03-29T04:07:03;-1.00;77.20
21734;DHT22;11029;47.820;10.534;2024-03-29T04:09:51;-1.00;76.70
21734;DHT22;11029;47.820;10.534;2024-03-29T04:12:36;-1.00;77.00
21734;DHT22;11029;47.820;10.534;2024-03-29T04:15:21;-1.00;77.00
21734;DHT22;11029;47.820;10.534;2024-03-29T04:18:06;-0.90;76.90
21734;DHT22;11029;47.820;10.534;2024-03-29T04:20:59;-0.90;76.60
21734;DHT22;11029;47.820;10.534;2024-03-29T04:23:44;-1.00;75.30
21734;DHT22;11029;47.820;10.534;2024-03-29T04:26:28;-1.10;74.90
21734;DHT22;11029;47.820;10.534;2024-03-29T04:29:13;-1.20;74.70
21734;DHT22;11029;47.820;10.534;2024-03-29T04:31:58;-1.40;74.40
21734;DHT22;11029;47.820;10.534;2024-03-29T04:34:42;-1.50;76.40
21734;DHT22;11029;47.820;10.534;2024-03-29T04:37:30;-1.40;77.00
21734;DHT22;11029;47.820;10.534;2024-03-29T04:40:15;-1.40;77.20
21734;DHT22;11029;47.820;10.534;2024-03-29T04:42:59;-1.40;77.80
21734;DHT22;11029;47.820;10.534;2024-03-29T04:45:44;-1.30;77.70
21734;DHT22;11029;47.820;10.534;2024-03-29T04:48:30;-1.20;77.60
21734;DHT22;11029;47.820;10.534;2024-03-29T04:51:15;-1.10;77.90
21734;DHT22;11029;47.820;10.534;2024-03-29T04:53:59;-0.90;77.30
21734;DHT22;11029;47.820;10.534;2024-03-29T04:56:44;-0.90;76.60
21734;DHT22;11029;47.820;10.534;2024-03-29T04:59:29;-0.90;76.00
21734;DHT22;11029;47.820;10.534;2024-03-29T05:02:13;-0.90;76.20
21734;DHT22;11029;47.820;10.534;2024-03-29T05:04:58;-0.90;77.00
21734;DHT22;11029;47.820;10.534;2024-03-29T05:07:43;-0.80;76.30
21734;DHT22;11029;47.820;10.534;2024-03-29T05:10:27;-0.90;77.20
21734;DHT22;11029;47.820;10.534;2024-03-29T05:13:12;-0.80;77.50
21734;DHT22;11029;47.820;10.534;2024-03-29T05:15:57;-0.70;76.90
21734;DHT22;11029;47.820;10.534;2024-03-29T05:18:42;-0.70;75.80
21734;DHT22;11029;47.820;10.534;2024-03-29T05:21:27;-0.80;75.50
21734;DHT22;11029;47.820;10.534;2024-03-29T05:24:14;-0.90;76.20
21734;DHT22;11029;47.820;10.534;2024-03-29T05:26:59;-0.90;76.00
21734;DHT22;11029;47.820;10.534;2024-03-29T05:29:44;-1.00;76.50
21734;DHT22;11029;47.820;10.534;2024-03-29T05:32:29;-0.90;77.80
21734;DHT22;11029;47.820;10.534;2024-03-29T05:35:14;-0.90;78.00
21734;DHT22;11029;47.820;10.534;2024-03-29T05:37:59;-0.70;78.20
21734;DHT22;11029;47.820;10.534;2024-03-29T05:40:43;-0.70;78.20
21734;DHT22;11029;47.820;10.534;2024-03-29T05:43:30;-0.60;77.80
21734;DHT22;11029;47.820;10.534;2024-03-29T05:46:18;-0.50;77.80
21734;DHT22;11029;47.820;10.534;2024-03-29T05:49:03;-0.40;77.30
21734;DHT22;11029;47.820;10.534;2024-03-29T05:51:48;-0.30;77.70
21734;DHT22;11029;47.820;10.534;2024-03-29T05:54:34;-0.10;77.30
21734;DHT22;11029;47.820;10.534;2024-03-29T05:57:19;0.00;76.80
21734;DHT22;11029;47.820;10.534;2024-03-29T06:00:05;0.10;76.30
21734;DHT22;11029;47.820;10.534;2024-03-29T06:02:50;0.30;76.90
21734;DHT22;11029;47.820;10.534;2024-03-29T06:05:35;0.50;76.50
21734;DHT22;11029;47.820;10.534;2024-03-29T06:08:20;0.70;75.50
21734;DHT22;11029;47.820;10.534;2024-03-29T06:11:05;0.80;74.80
21734;DHT22;11029;47.820;10.534;2024-03-29T06:13:50;0.90;75.30
21734;DHT22;11029;47.820;10.534;2024-03-29T06:16:37;1.00;74.80
21734;DHT22;11029;47.820;10.534;2024-03-29T06:19:40;1.20;75.10
21734;DHT22;11029;47.820;10.534;2024-03-29T06:22:26;1.30;74.50
21734;DHT22;11029;47.820;10.534;2024-03-29T06:25:14;1.40;74.70
21734;DHT22;11029;47.820;10.534;2024-03-29T06:27:59;1.60;74.30
21734;DHT22;11029;47.820;10.534;2024-03-29T06:30:44;1.80;74.40
21734;DHT22;11029;47.820;10.534;2024-03-29T06:33:29;2.00;74.30
21734;DHT22;11029;47.820;10.534;2024-03-29T06:36:14;2.30;74.30
21734;DHT22;11029;47.820;10.534;2024-03-29T06:38:58;2.50;73.80
21734;DHT22;11029;47.820;10.534;2024-03-29T06:41:43;2.70;73.70
21734;DHT22;11029;47.820;10.534;2024-03-29T06:44:27;2.90;73.20
21734;DHT22;11029;47.820;10.534;2024-03-29T06:47:12;3.20;73.60
21734;DHT22;11029;47.820;10.534;2024-03-29T06:49:57;3.40;73.70
21734;DHT22;11029;47.820;10.534;2024-03-29T06:52:42;3.60;73.50
21734;DHT22;11029;47.820;10.534;2024-03-29T06:55:26;3.80;73.60
21734;DHT22;11029;47.820;10.534;2024-03-29T06:58:11;3.90;72.50
21734;DHT22;11029;47.820;10.534;2024-03-29T07:00:55;4.00;73.20
21734;DHT22;11029;47.820;10.534;2024-03-29T07:03:40;4.30;73.70
21734;DHT22;11029;47.820;10.534;2024-03-29T07:06:25;4.60;72.60
21734;DHT22;11029;47.820;10.534;2024-03-29T07:09:10;4.80;72.20
21734;DHT22;11029;47.820;10.534;2024-03-29T07:11:54;5.10;71.80
21734;DHT22;11029;47.820;10.534;2024-03-29T07:14:39;5.50;71.10
21734;DHT22;11029;47.820;10.534;2024-03-29T07:17:23;5.80;70.70
21734;DHT22;11029;47.820;10.534;2024-03-29T07:20:09;6.00;69.30
21734;DHT22;11029;47.820;10.534;2024-03-29T07:22:54;6.20;68.60
21734;DHT22;11029;47.820;10.534;2024-03-29T07:25:39;6.40;66.90
21734;DHT22;11029;47.820;10.534;2024-03-29T07:28:23;6.60;67.50
21734;DHT22;11029;47.820;10.534;2024-03-29T07:31:08;6.90;68.00
21734;DHT22;11029;47.820;10.534;2024-03-29T07:33:53;7.10;67.80
21734;DHT22;11029;47.820;10.534;2024-03-29T07:36:38;7.40;64.70
21734;DHT22;11029;47.820;10.534;2024-03-29T07:39:23;7.50;62.80
21734;DHT22;11029;47.820;10.534;2024-03-29T07:42:08;7.80;61.40
21734;DHT22;11029;47.820;10.534;2024-03-29T07:44:53;8.00;61.40
21734;DHT22;11029;47.820;10.534;2024-03-29T07:47:38;8.30;61.70
21734;DHT22;11029;47.820;10.534;2024-03-29T07:50:22;8.70;60.90
21734;DHT22;11029;47.820;10.534;2024-03-29T07:53:09;9.00;59.60
21734;DHT22;11029;47.820;10.534;2024-03-29T07:55:54;9.30;58.40
21734;DHT22;11029;47.820;10.534;2024-03-29T07:58:39;9.60;56.10
21734;DHT22;11029;47.820;10.534;2024-03-29T08:01:24;9.90;55.90
21734;DHT22;11029;47.820;10.534;2024-03-29T08:04:09;10.00;55.30
21734;DHT22;11029;47.820;10.534;2024-03-29T08:06:53;10.10;54.20
21734;DHT22;11029;47.820;10.534;2024-03-29T08:09:38;10.20;53.20
21734;DHT22;11029;47.820;10.534;2024-03-29T08:12:23;10.20;51.80
21734;DHT22;11029;47.820;10.534;2024-03-29T08:15:08;10.30;52.00
21734;DHT22;11029;47.820;10.534;2024-03-29T08:17:53;10.40;52.50
21734;DHT22;11029;47.820;10.534;2024-03-29T08:20:37;10.60;51.90
21734;DHT22;11029;47.820;10.534;2024-03-29T08:23:22;10.80;51.90
21734;DHT22;11029;47.820;10.534;2024-03-29T08:26:07;11.00;51.80
21734;DHT22;11029;47.820;10.534;2024-03-29T08:28:52;11.10;51.00
21734;DHT22;11029;47.820;10.534;2024-03-29T08:31:37;11.20;51.20
21734;DHT22;11029;47.820;10.534;2024-03-29T08:34:22;11.40;52.00
21734;DHT22;11029;47.820;10.534;2024-03-29T08:37:06;11.50;52.10
21734;DHT22;11029;47.820;10.534;2024-03-29T08:39:51;11.70;51.20
21734;DHT22;11029;47.820;10.534;2024-03-29T08:42:35;11.80;50.70
21734;DHT22;11029;47.820;10.534;2024-03-29T08:45:22;11.90;50.30
21734;DHT22;11029;47.820;10.534;2024-03-29T08:48:07;12.00;50.40
21734;DHT22;11029;47.820;10.534;2024-03-29T08:50:52;12.20;51.40
21734;DHT22;11029;47.820;10.534;2024-03-29T08:53:37;12.40;51.00
21734;DHT22;11029;47.820;10.534;2024-03-29T08:56:22;12.50;50.60
21734;DHT22;11029;47.820;10.534;2024-03-29T08:59:07;12.70;50.70
21734;DHT22;11029;47.820;10.534;2024-03-29T09:01:53;12.80;50.80
21734;DHT22;11029;47.820;10.534;2024-03-29T09:04:37;13.00;50.60
21734;DHT22;11029;47.820;10.534;2024-03-29T09:07:22;13.10;50.30
21734;DHT22;11029;47.820;10.534;2024-03-29T09:10:08;13.20;50.30
21734;DHT22;11029;47.820;10.534;2024-03-29T09:12:53;13.40;51.00
21734;DHT22;11029;47.820;10.534;2024-03-29T09:15:38;13.50;51.20
21734;DHT22;11029;47.820;10.534;2024-03-29T09:18:23;13.70;51.50
21734;DHT22;11029;47.820;10.534;2024-03-29T09:21:10;13.80;50.70
21734;DHT22;11029;47.820;10.534;2024-03-29T09:23:55;14.00;49.70
21734;DHT22;11029;47.820;10.534;2024-03-29T09:26:40;14.10;49.00
21734;DHT22;11029;47.820;10.534;2024-03-29T09:29:25;14.10;48.30
21734;DHT22;11029;47.820;10.534;2024-03-29T09:32:10;14.20;48.30
21734;DHT22;11029;47.820;10.534;2024-03-29T09:34:55;14.30;47.90
21734;DHT22;11029;47.820;10.534;2024-03-29T09:37:39;14.40;47.60
21734;DHT22;11029;47.820;10.534;2024-03-29T09:40:26;14.50;47.10
21734;DHT22;11029;47.820;10.534;2024-03-29T09:43:14;14.70;47.00
21734;DHT22;11029;47.820;10.534;2024-03-29T09:46:01;14.80;46.30
21734;DHT22;11029;47.820;10.534;2024-03-29T09:48:47;15.00;46.30
21734;DHT22;11029;47.820;10.534;2024-03-29T09:51:34;15.10;44.70
21734;DHT22;11029;47.820;10.534;2024-03-29T09:54:18;16.00;43.70
21734;DHT22;11029;47.820;10.534;2024-03-29T09:57:04;15.60;44.80
21734;DHT22;11029;47.820;10.534;2024-03-29T09:59:49;15.70;44.90
21734;DHT22;11029;47.820;10.534;2024-03-29T10:02:35;15.80;44.70
21734;DHT22;11029;47.820;10.534;2024-03-29T10:05:20;15.90;44.40
21734;DHT22;11029;47.820;10.534;2024-03-29T10:08:06;16.00;44.70
21734;DHT22;11029;47.820;10.534;2024-03-29T10:10:51;16.10;44.30
21734;DHT22;11029;47.820;10.534;2024-03-29T10:13:37;16.10;43.40
21734;DHT22;11029;47.820;10.534;2024-03-29T10:16:22;16.20;43.60
21734;DHT22;11029;47.820;10.534;2024-03-29T10:19:08;16.20;42.70
21734;DHT22;11029;47.820;10.534;2024-03-29T10:22:08;16.40;41.70
21734;DHT22;11029;47.820;10.534;2024-03-29T10:24:53;16.50;41.70
21734;DHT22;11029;47.820;10.534;2024-03-29T10:27:38;16.60;39.80
21734;DHT22;11029;47.820;10.534;2024-03-29T10:30:25;16.60;42.80
21734;DHT22;11029;47.820;10.534;2024-03-29T10:33:10;16.60;45.10
21734;DHT22;11029;47.820;10.534;2024-03-29T10:35:54;16.50;44.70
21734;DHT22;11029;47.820;10.534;2024-03-29T10:38:40;16.50;45.40
21734;DHT22;11029;47.820;10.534;2024-03-29T10:41:25;16.50;44.80
21734;DHT22;11029;47.820;10.534;2024-03-29T10:44:11;16.50;47.70
21734;DHT22;11029;47.820;10.534;2024-03-29T10:46:57;16.50;47.40
21734;DHT22;11029;47.820;10.534;2024-03-29T10:49:43;16.50;48.50
21734;DHT22;11029;47.820;10.534;2024-03-29T10:52:29;16.50;50.00
21734;DHT22;11029;47.820;10.534;2024-03-29T10:55:13;16.50;51.50
21734;DHT22;11029;47.820;10.534;2024-03-29T10:57:58;16.50;52.60
21734;DHT22;11029;47.820;10.534;2024-03-29T11:00:48;16.60;52.60
21734;DHT22;11029;47.820;10.534;2024-03-29T11:03:39;16.70;52.30
21734;DHT22;11029;47.820;10.534;2024-03-29T11:06:27;16.80;50.80
21734;DHT22;11029;47.820;10.534;2024-03-29T11:09:13;16.90;51.20
21734;DHT22;11029;47.820;10.534;2024-03-29T11:12:01;17.20;52.40
21734;DHT22;11029;47.820;10.534;2024-03-29T11:14:53;17.30;50.50
21734;DHT22;11029;47.820;10.534;2024-03-29T11:17:48;17.40;51.10
21734;DHT22;11029;47.820;10.534;2024-03-29T11:20:34;17.40;50.30
21734;DHT22;11029;47.820;10.534;2024-03-29T11:23:22;17.50;50.20
21734;DHT22;11029;47.820;10.534;2024-03-29T11:26:07;17.60;49.70
21734;DHT22;11029;47.820;10.534;2024-03-29T11:28:52;17.80;48.90
21734;DHT22;11029;47.820;10.534;2024-03-29T11:31:38;18.00;48.60
21734;DHT22;11029;47.820;10.534;2024-03-29T11:34:23;18.10;47.80
21734;DHT22;11029;47.820;10.534;2024-03-29T11:37:11;18.10;48.00
21734;DHT22;11029;47.820;10.534;2024-03-29T11:40:00;18.00;47.20
21734;DHT22;11029;47.820;10.534;2024-03-29T11:42:47;17.90;49.20
21734;DHT22;11029;47.820;10.534;2024-03-29T11:45:32;17.90;49.30
21734;DHT22;11029;47.820;10.534;2024-03-29T11:48:25;17.90;48.90
21734;DHT22;11029;47.820;10.534;2024-03-29T11:51:12;18.00;50.00
21734;DHT22;11029;47.820;10.534;2024-03-29T11:54:00;18.00;49.70
21734;DHT22;11029;47.820;10.534;2024-03-29T11:56:45;18.00;49.40
21734;DHT22;11029;47.820;10.534;2024-03-29T11:59:30;18.20;48.70
21734;DHT22;11029;47.820;10.534;2024-03-29T12:02:14;18.30;48.70
21734;DHT22;11029;47.820;10.534;2024-03-29T12:04:59;18.40;48.80
21734;DHT22;11029;47.820;10.534;2024-03-29T12:07:46;18.50;48.30
21734;DHT22;11029;47.820;10.534;2024-03-29T12:10:31;18.60;49.10
21734;DHT22;11029;47.820;10.534;2024-03-29T12:13:18;18.70;49.20
21734;DHT22;11029;47.820;10.534;2024-03-29T12:16:04;18.80;48.00
21734;DHT22;11029;47.820;10.534;2024-03-29T12:18:49;18.70;47.10
21734;DHT22;11029;47.820;10.534;2024-03-29T12:21:34;18.60;47.40
21734;DHT22;11029;47.820;10.534;2024-03-29T12:24:20;18.80;47.10
21734;DHT22;11029;47.820;10.534;2024-03-29T12:27:05;19.00;47.40
21734;DHT22;11029;47.820;10.534;2024-03-29T12:29:50;19.30;44.50
21734;DHT22;11029;47.820;10.534;2024-03-29T12:32:35;19.60;42.50
21734;DHT22;11029;47.820;10.534;2024-03-29T12:35:22;19.80;43.20
21734;DHT22;11029;47.820;10.534;2024-03-29T12:38:06;20.00;40.60
21734;DHT22;11029;47.820;10.534;2024-03-29T12:40:52;20.20;39.30
21734;DHT22;11029;47.820;10.534;2024-03-29T12:43:37;20.40;38.50
21734;DHT22;11029;47.820;10.534;2024-03-29T12:46:22;20.60;38.70
21734;DHT22;11029;47.820;10.534;2024-03-29T12:49:06;20.80;38.40
21734;DHT22;11029;47.820;10.534;2024-03-29T12:51:51;21.00;35.70
21734;DHT22;11029;47.820;10.534;2024-03-29T12:54:35;21.10;36.00
21734;DHT22;11029;47.820;10.534;2024-03-29T12:57:20;21.10;36.90
21734;DHT22;11029;47.820;10.534;2024-03-29T13:00:05;21.30;37.30
21734;DHT22;11029;47.820;10.534;2024-03-29T13:02:53;21.50;35.80
21734;DHT22;11029;47.820;10.534;2024-03-29T13:05:39;21.60;34.40
21734;DHT22;11029;47.820;10.534;2024-03-29T13:08:26;21.80;35.20
21734;DHT22;11029;47.820;10.534;2024-03-29T13:11:11;22.00;36.30
21734;DHT22;11029;47.820;10.534;2024-03-29T13:13:56;22.30;34.50
21734;DHT22;11029;47.820;10.534;2024-03-29T13:16:40;22.40;34.50
21734;DHT22;11029;47.820;10.534;2024-03-29T13:19:25;22.20;34.00
21734;DHT22;11029;47.820;10.534;2024-03-29T13:22:10;22.10;34.50
21734;DHT22;11029;47.820;10.534;2024-03-29T13:24:54;21.90;34.80
21734;DHT22;11029;47.820;10.534;2024-03-29T13:27:40;21.70;35.10
21734;DHT22;11029;47.820;10.534;2024-03-29T13:30:26;21.50;34.90
21734;DHT22;11029;47.820;10.534;2024-03-29T13:33:11;21.40;36.10
21734;DHT22;11029;47.820;10.534;2024-03-29T13:35:57;21.20;37.40
21734;DHT22;11029;47.820;10.534;2024-03-29T13:38:42;21.30;37.90
21734;DHT22;11029;47.820;10.534;2024-03-29T13:41:27;21.30;37.60
21734;DHT22;11029;47.820;10.534;2024-03-29T13:44:11;21.10;37.80
21734;DHT22;11029;47.820;10.534;2024-03-29T13:46:58;21.00;37.60
21734;DHT22;11029;47.820;10.534;2024-03-29T13:49:42;20.80;38.40
21734;DHT22;11029;47.820;10.534;2024-03-29T13:52:27;20.70;37.80
21734;DHT22;11029;47.820;10.534;2024-03-29T13:55:12;20.30;38.10
21734;DHT22;11029;47.820;10.534;2024-03-29T13:57:56;20.00;39.10
21734;DHT22;11029;47.820;10.534;2024-03-29T14:00:41;20.00;40.00
21734;DHT22;11029;47.820;10.534;2024-03-29T14:03:26;19.90;40.70
21734;DHT22;11029;47.820;10.534;2024-03-29T14:06:10;19.80;41.00
21734;DHT22;11029;47.820;10.534;2024-03-29T14:08:56;19.60;42.50
21734;DHT22;11029;47.820;10.534;2024-03-29T14:11:41;19.40;41.90
21734;DHT22;11029;47.820;10.534;2024-03-29T14:14:28;19.40;41.10
21734;DHT22;11029;47.820;10.534;2024-03-29T14:17:12;19.30;39.80
21734;DHT22;11029;47.820;10.534;2024-03-29T14:19:57;19.20;36.70
21734;DHT22;11029;47.820;10.534;2024-03-29T14:22:43;19.10;34.90
21734;DHT22;11029;47.820;10.534;2024-03-29T14:25:28;19.10;35.20
21734;DHT22;11029;47.820;10.534;2024-03-29T14:28:13;19.10;33.30
21734;DHT22;11029;47.820;10.534;2024-03-29T14:30:58;19.00;34.40
21734;DHT22;11029;47.820;10.534;2024-03-29T14:33:42;19.10;33.60
21734;DHT22;11029;47.820;10.534;2024-03-29T14:36:28;19.00;33.60
21734;DHT22;11029;47.820;10.534;2024-03-29T14:39:17;19.00;34.70
21734;DHT22;11029;47.820;10.534;2024-03-29T14:42:05;18.90;33.80
21734;DHT22;11029;47.820;10.534;2024-03-29T14:44:53;18.90;34.60
21734;DHT22;11029;47.820;10.534;2024-03-29T14:47:38;18.80;34.30
21734;DHT22;11029;47.820;10.534;2024-03-29T14:50:22;18.80;34.00
21734;DHT22;11029;47.820;10.534;2024-03-29T14:53:07;18.80;34.70
21734;DHT22;11029;47.820;10.534;2024-03-29T14:55:52;18.80;32.90
21734;DHT22;11029;47.820;10.534;2024-03-29T14:58:37;18.80;34.00
21734;DHT22;11029;47.820;10.534;2024-03-29T15:01:23;18.80;34.10
21734;DHT22;11029;47.820;10.534;2024-03-29T15:04:09;18.80;33.90
21734;DHT22;11029;47.820;10.534;2024-03-29T15:06:54;18.70;33.20
21734;DHT22;11029;47.820;10.534;2024-03-29T15:09:39;18.60;34.80
21734;DHT22;11029;47.820;10.534;2024-03-29T15:12:24;18.50;34.50
21734;DHT22;11029;47.820;10.534;2024-03-29T15:15:08;18.50;34.50
21734;DHT22;11029;47.820;10.534;2024-03-29T15:17:53;18.40;34.60
21734;DHT22;11029;47.820;10.534;2024-03-29T15:20:37;18.40;34.40
21734;DHT22;11029;47.820;10.534;2024-03-29T15:23:22;18.30;34.80
21734;DHT22;11029;47.820;10.534;2024-03-29T15:26:09;18.30;34.80
21734;DHT22;11029;47.820;10.534;2024-03-29T15:28:53;18.30;34.00
21734;DHT22;11029;47.820;10.534;2024-03-29T15:31:54;18.30;33.90
21734;DHT22;11029;47.820;10.534;2024-03-29T15:34:39;18.30;34.20
21734;DHT22;11029;47.820;10.534;2024-03-29T15:37:23;18.20;34.60
21734;DHT22;11029;47.820;10.534;2024-03-29T15:40:10;18.20;34.00
21734;DHT22;11029;47.820;10.534;2024-03-29T15:42:54;18.00;34.20
21734;DHT22;11029;47.820;10.534;2024-03-29T15:45:39;18.00;34.80
21734;DHT22;11029;47.820;10.534;2024-03-29T15:48:24;17.90;35.20
21734;DHT22;11029;47.820;10.534;2024-03-29T15:51:09;17.80;34.60
21734;DHT22;11029;47.820;10.534;2024-03-29T15:53:57;17.70;36.10
21734;DHT22;11029;47.820;10.534;2024-03-29T15:56:45;17.70;41.60
21734;DHT22;11029;47.820;10.534;2024-03-29T15:59:29;17.50;49.40
21734;DHT22;11029;47.820;10.534;2024-03-29T16:02:14;17.40;52.80
21734;DHT22;11029;47.820;10.534;2024-03-29T16:04:59;17.20;55.90
21734;DHT22;11029;47.820;10.534;2024-03-29T16:07:45;17.10;56.40
21734;DHT22;11029;47.820;10.534;2024-03-29T16:10:30;17.00;57.10
21734;DHT22;11029;47.820;10.534;2024-03-29T16:13:15;16.90;56.90
21734;DHT22;11029;47.820;10.534;2024-03-29T16:16:03;16.90;57.80
21734;DHT22;11029;47.820;10.534;2024-03-29T16:18:48;16.90;58.10
21734;DHT22;11029;47.820;10.534;2024-03-29T16:21:33;16.90;58.70
21734;DHT22;11029;47.820;10.534;2024-03-29T16:24:17;17.00;59.20
21734;DHT22;11029;47.820;10.534;2024-03-29T16:27:02;17.00;59.00
21734;DHT22;11029;47.820;10.534;2024-03-29T16:29:47;16.90;59.30
21734;DHT22;11029;47.820;10.534;2024-03-29T16:32:31;16.90;59.40
21734;DHT22;11029;47.820;10.534;2024-03-29T16:35:19;16.90;59.80
21734;DHT22;11029;47.820;10.534;2024-03-29T16:38:04;17.40;58.70
21734;DHT22;11029;47.820;10.534;2024-03-29T16:40:49;18.00;57.00
21734;DHT22;11029;47.820;10.534;2024-03-29T16:43:34;18.30;56.30
21734;DHT22;11029;47.820;10.534;2024-03-29T16:46:18;18.30;55.80
21734;DHT22;11029;47.820;10.534;2024-03-29T16:49:03;17.80;56.90
21734;DHT22;11029;47.820;10.534;2024-03-29T16:51:48;17.50;57.60
21734;DHT22;11029;47.820;10.534;2024-03-29T16:54:32;17.10;59.00
21734;DHT22;11029;47.820;10.534;2024-03-29T16:57:17;16.70;60.20
21734;DHT22;11029;47.820;10.534;2024-03-29T17:00:03;16.30;61.40
21734;DHT22;11029;47.820;10.534;2024-03-29T17:02:54;16.00;61.90
21734;DHT22;11029;47.820;10.534;2024-03-29T17:05:40;15.80;62.30
21734;DHT22;11029;47.820;10.534;2024-03-29T17:08:25;15.60;62.70
21734;DHT22;11029;47.820;10.534;2024-03-29T17:11:09;15.40;63.40